Time;durP1;ratioP1;P1;durP2;ratioP2;P2;SDS_P1;SDS_P2;PMS_P1;PMS_P2;Temp;Humidity;BMP_temperature;BMP_pressure;BME280_temperature;BME280_humidity;BME280_pressure;Samples;Min_cycle;Max_cycle;Signal;HPM_P1;HPM_P2
2023/08/08 00:00:15;;;;;;;4.93;1.65;;;;;;;13.78;100.00;100729.84;4974056;28;20393;-93
2023/08/08 00:02:41;;;;;;;4.22;1.30;;;;;;;13.76;100.00;100729.91;4974206;28;20023;-93
2023/08/08 00:05:07;;;;;;;2.40;1.08;;;;;;;13.76;100.00;100742.06;4972580;28;20090;-94
2023/08/08 00:07:32;;;;;;;1.77;0.75;;;;;;;13.78;100.00;100742.81;4972823;28;20442;-94
2023/08/08 00:09:57;;;;;;;2.80;0.90;;;;;;;13.75;100.00;100736.03;4974209;28;20031;-93
2023/08/08 00:12:23;;;;;;;2.67;1.13;;;;;;;13.76;100.00;100732.53;4974167;28;20114;-94
2023/08/08 00:14:48;;;;;;;2.40;1.00;;;;;;;13.81;100.00;100725.25;4974012;28;20027;-93
2023/08/08 00:17:14;;;;;;;6.60;1.55;;;;;;;13.89;100.00;100724.75;4972632;28;20033;-92
2023/08/08 00:19:40;;;;;;;7.68;1.20;;;;;;;13.83;100.00;100712.19;4973752;28;20027;-93
2023/08/08 00:22:05;;;;;;;5.10;1.35;;;;;;;13.92;100.00;100727.13;4973361;28;20035;-92
2023/08/08 00:24:31;;;;;;;2.75;1.15;;;;;;;13.92;100.00;100721.94;4973731;28;20030;-92
2023/08/08 00:26:56;;;;;;;3.95;1.20;;;;;;;13.88;100.00;100715.31;4974126;28;20025;-93
2023/08/08 00:29:21;;;;;;;3.47;1.38;;;;;;;13.89;100.00;100719.56;4973809;28;20030;-93
2023/08/08 00:31:47;;;;;;;4.03;1.40;;;;;;;13.91;100.00;100713.31;4973617;28;20023;-93
2023/08/08 00:34:12;;;;;;;3.97;0.98;;;;;;;13.90;100.00;100703.06;4973860;28;20465;-93
2023/08/08 00:36:37;;;;;;;7.03;1.30;;;;;;;14.09;100.00;100698.28;4972918;28;20050;-92
2023/08/08 00:39:03;;;;;;;2.28;0.90;;;;;;;14.03;100.00;100697.88;4973364;28;20313;-93
2023/08/08 00:41:28;;;;;;;8.73;1.20;;;;;;;13.92;100.00;100690.78;4973048;28;20170;-92
2023/08/08 00:43:54;;;;;;;2.60;0.90;;;;;;;13.93;100.00;100687.28;4986314;28;20041;-93
2023/08/08 00:46:21;;;;;;;5.18;1.00;;;;;;;13.90;100.00;100693.50;4992871;28;20315;-93
2023/08/08 00:48:47;;;;;;;6.40;1.15;;;;;;;13.92;100.00;100680.41;4993110;28;20096;-93
2023/08/08 00:51:13;;;;;;;7.35;1.13;;;;;;;13.93;100.00;100682.09;4991664;28;20120;-94
2023/08/08 00:53:39;;;;;;;6.55;1.13;;;;;;;13.91;100.00;100677.00;4978924;28;20057;-92
2023/08/08 00:56:04;;;;;;;4.03;0.82;;;;;;;13.86;100.00;100666.09;4973256;28;20473;-93
2023/08/08 00:58:30;;;;;;;2.25;1.10;;;;;;;13.84;100.00;100669.72;4973241;28;20026;-93
2023/08/08 01:00:57;;;;;;;4.97;1.10;;;;;;;13.84;100.00;100677.53;4971893;28;20054;-94
2023/08/08 01:03:23;;;;;;;5.78;1.10;;;;;;;13.88;100.00;100673.78;4973418;28;20396;-94
2023/08/08 01:06:03;;;;;;;3.88;1.05;;;;;;;13.86;100.00;100670.47;4983365;28;20026;-94
2023/08/08 01:08:37;;;;;;;7.85;1.08;;;;;;;13.91;100.00;100669.22;4996589;28;20057;-93
2023/08/08 01:11:03;;;;;;;4.93;1.15;;;;;;;13.97;100.00;100673.16;4996573;28;20027;-94
2023/08/08 01:13:31;;;;;;;10.48;1.40;;;;;;;13.84;100.00;100665.38;4996473;28;20026;-93
2023/08/08 01:15:57;;;;;;;6.82;1.55;;;;;;;13.72;100.00;100668.78;4997065;28;20101;-92
2023/08/08 01:18:23;;;;;;;4.72;1.15;;;;;;;13.62;100.00;100663.38;4996460;28;20029;-92
2023/08/08 01:20:50;;;;;;;3.75;1.13;;;;;;;13.94;100.00;100659.56;4984922;28;20481;-92
2023/08/08 01:23:49;;;;;;;3.25;1.10;;;;;;;13.75;100.00;100665.16;4996553;28;20030;-92
2023/08/08 01:26:14;;;;;;;6.78;1.00;;;;;;;13.82;100.00;100671.59;4963602;28;20057;-92
2023/08/08 01:28:42;;;;;;;3.58;1.05;;;;;;;13.91;100.00;100664.03;4996321;28;20477;-93
2023/08/08 01:31:07;;;;;;;2.88;1.23;;;;;;;13.89;100.00;100662.47;4996403;28;20026;-93
2023/08/08 01:33:33;;;;;;;2.65;0.98;;;;;;;13.87;100.00;100659.16;4996934;28;20037;-93
2023/08/08 01:36:30;;;;;;;9.40;1.25;;;;;;;13.89;100.00;100654.69;4991995;28;20477;-93
2023/08/08 01:39:03;;;;;;;5.30;1.02;;;;;;;13.67;100.00;100644.94;4986469;28;20061;-93
2023/08/08 01:41:32;;;;;;;2.25;0.90;;;;;;;13.71;100.00;100636.00;4994997;28;20109;-93
2023/08/08 01:43:58;;;;;;;2.90;1.10;;;;;;;13.68;100.00;100631.03;4996087;28;20030;-93
2023/08/08 01:46:24;;;;;;;6.10;1.55;;;;;;;13.65;100.00;100636.41;4995921;28;20100;-93
2023/08/08 01:48:50;;;;;;;3.10;0.93;;;;;;;13.62;100.00;100637.44;4994791;28;20029;-94
2023/08/08 01:51:15;;;;;;;2.58;0.85;;;;;;;13.69;100.00;100641.28;4995745;28;20118;-94
2023/08/08 01:53:41;;;;;;;3.08;0.98;;;;;;;13.65;100.00;100633.81;4976575;28;20091;-94
2023/08/08 01:56:06;;;;;;;3.05;1.00;;;;;;;13.65;100.00;100637.25;4976343;28;20474;-92
2023/08/08 01:58:32;;;;;;;4.22;1.00;;;;;;;13.70;100.00;100630.00;4976705;28;20035;-93
2023/08/08 02:00:57;;;;;;;4.22;0.85;;;;;;;13.73;100.00;100634.16;4976457;28;20031;-93
2023/08/08 02:03:22;;;;;;;6.05;0.93;;;;;;;13.89;100.00;100628.75;4976254;28;20057;-94
2023/08/08 02:05:48;;;;;;;2.33;0.82;;;;;;;13.84;100.00;100634.25;4976707;28;20027;-93
2023/08/08 02:08:14;;;;;;;1.20;0.70;;;;;;;13.87;100.00;100630.59;4975893;28;20058;-93
2023/08/08 02:10:39;;;;;;;2.95;0.70;;;;;;;13.94;100.00;100631.03;4977976;28;20134;-93
2023/08/08 02:13:04;;;;;;;4.18;1.02;;;;;;;13.86;100.00;100624.59;4978089;28;20419;-93
2023/08/08 02:15:30;;;;;;;1.98;0.80;;;;;;;13.98;100.00;100620.31;4975419;28;20214;-93
2023/08/08 02:17:55;;;;;;;2.90;0.73;;;;;;;13.92;100.00;100623.34;4974913;28;20023;-94
2023/08/08 02:20:20;;;;;;;4.63;1.02;;;;;;;13.82;100.00;100620.53;4976299;28;20027;-93
2023/08/08 02:22:46;;;;;;;3.88;1.30;;;;;;;13.76;100.00;100627.94;4974032;28;20027;-94
2023/08/08 02:25:11;;;;;;;2.03;0.80;;;;;;;13.81;100.00;100638.81;4975844;28;20026;-93
2023/08/08 02:27:37;;;;;;;2.17;0.93;;;;;;;13.74;100.00;100634.97;4974190;28;20029;-94
2023/08/08 02:30:03;;;;;;;3.85;0.82;;;;;;;13.73;100.00;100635.88;4976155;28;20027;-93
2023/08/08 02:32:28;;;;;;;1.50;0.88;;;;;;;13.77;100.00;100637.34;4975889;28;20054;-93
2023/08/08 02:34:53;;;;;;;2.38;0.70;;;;;;;13.72;100.00;100632.47;4975742;28;20046;-94
2023/08/08 02:37:19;;;;;;;3.28;1.17;;;;;;;13.79;100.00;100635.50;4975881;28;20031;-93
2023/08/08 02:39:44;;;;;;;2.65;1.00;;;;;;;13.69;100.00;100628.31;4975806;28;20061;-94
2023/08/08 02:42:10;;;;;;;2.88;0.80;;;;;;;13.59;100.00;100610.91;4975683;28;20035;-93
2023/08/08 02:44:35;;;;;;;1.83;0.75;;;;;;;13.78;100.00;100610.50;4975251;28;20031;-93
2023/08/08 02:47:01;;;;;;;1.83;0.70;;;;;;;13.83;100.00;100609.25;4974988;28;20027;-93
2023/08/08 02:49:26;;;;;;;4.65;0.70;;;;;;;13.69;100.00;100604.97;4975185;28;20107;-93
2023/08/08 02:51:52;;;;;;;3.28;0.90;;;;;;;13.78;100.00;100602.72;4974680;28;20027;-94
2023/08/08 02:54:17;;;;;;;2.17;0.82;;;;;;;13.66;100.00;100607.78;4977221;28;20032;-93
2023/08/08 02:56:42;;;;;;;2.78;0.85;;;;;;;13.65;100.00;100603.50;4994251;28;20160;-93
2023/08/08 02:59:08;;;;;;;1.67;0.80;;;;;;;13.70;100.00;100606.66;4994190;28;20444;-93
2023/08/08 03:01:37;;;;;;;2.80;0.80;;;;;;;13.67;100.00;100603.44;4994233;28;20050;-93
2023/08/08 03:04:03;;;;;;;3.45;0.80;;;;;;;13.61;100.00;100604.69;4992888;28;20049;-93
2023/08/08 03:06:28;;;;;;;4.18;1.10;;;;;;;13.63;100.00;100602.81;4994119;28;20473;-92
2023/08/08 03:08:54;;;;;;;3.30;0.90;;;;;;;13.56;100.00;100604.16;4981883;28;20134;-93
2023/08/08 03:11:19;;;;;;;4.55;0.90;;;;;;;13.62;100.00;100606.31;4973204;28;20535;-93
2023/08/08 03:13:44;;;;;;;2.38;0.70;;;;;;;13.67;100.00;100609.44;4974249;28;20034;-93
2023/08/08 03:16:10;;;;;;;2.42;1.00;;;;;;;13.64;100.00;100598.44;4974448;28;20382;-93
2023/08/08 03:18:35;;;;;;;2.10;1.02;;;;;;;13.70;100.00;100604.06;4974432;28;20073;-93
2023/08/08 03:21:00;;;;;;;2.00;0.90;;;;;;;13.72;100.00;100605.72;4974272;28;20026;-93
2023/08/08 03:23:26;;;;;;;1.83;1.02;;;;;;;13.69;100.00;100596.38;4973869;28;20114;-93
2023/08/08 03:25:51;;;;;;;4.50;1.00;;;;;;;13.62;100.00;100595.94;4974171;28;20055;-93
2023/08/08 03:28:17;;;;;;;1.65;0.70;;;;;;;13.65;100.00;100595.75;4973255;28;20477;-92
2023/08/08 03:30:42;;;;;;;2.25;0.80;;;;;;;13.57;100.00;100598.03;4974160;28;20019;-93
2023/08/08 03:33:07;;;;;;;3.15;0.93;;;;;;;13.58;100.00;100604.91;4974399;28;20466;-93
2023/08/08 03:35:33;;;;;;;1.50;0.70;;;;;;;13.56;100.00;100601.56;4974063;28;20362;-92
2023/08/08 03:37:58;;;;;;;0.88;0.70;;;;;;;13.57;100.00;100603.22;4973397;28;20031;-93
2023/08/08 03:40:23;;;;;;;4.68;0.90;;;;;;;13.59;100.00;100596.16;4974011;28;20085;-93
2023/08/08 03:42:49;;;;;;;3.90;1.10;;;;;;;13.65;100.00;100587.97;4974059;28;20391;-93
2023/08/08 03:45:14;;;;;;;4.95;1.13;;;;;;;13.60;100.00;100592.63;4973850;28;20027;-93
2023/08/08 03:47:39;;;;;;;2.42;0.90;;;;;;;13.58;100.00;100599.72;4973881;28;20105;-93
2023/08/08 03:50:06;;;;;;;3.22;1.20;;;;;;;13.53;100.00;100591.38;4973873;28;20031;-93
2023/08/08 03:52:34;;;;;;;4.70;1.08;;;;;;;13.47;100.00;100591.81;4974345;28;20053;-93
2023/08/08 03:54:59;;;;;;;1.83;0.88;;;;;;;13.34;100.00;100591.81;4980182;28;20125;-93
2023/08/08 03:57:25;;;;;;;1.80;0.90;;;;;;;13.38;100.00;100589.81;4991869;28;20126;-93
2023/08/08 03:59:50;;;;;;;4.47;1.15;;;;;;;13.27;100.00;100596.56;4993055;28;20027;-93
2023/08/08 04:02:15;;;;;;;3.72;1.25;;;;;;;13.37;100.00;100590.78;4992965;28;20031;-93
2023/08/08 04:04:41;;;;;;;1.67;0.90;;;;;;;13.40;100.00;100595.75;4992904;28;20170;-93
2023/08/08 04:07:06;;;;;;;2.30;1.15;;;;;;;13.43;100.00;100592.94;4993050;28;20022;-94
2023/08/08 04:09:31;;;;;;;1.52;0.88;;;;;;;13.41;100.00;100580.09;4979603;28;20085;-93
2023/08/08 04:11:57;;;;;;;3.75;1.10;;;;;;;13.42;100.00;100583.50;4973714;28;20026;-93
2023/08/08 04:14:22;;;;;;;4.00;1.10;;;;;;;13.45;100.00;100585.88;4973111;28;20031;-93
2023/08/08 04:16:47;;;;;;;1.75;0.95;;;;;;;13.53;100.00;100590.56;4973452;28;20097;-93
2023/08/08 04:19:13;;;;;;;1.25;0.80;;;;;;;13.35;100.00;100574.47;4973470;28;20114;-93
2023/08/08 04:21:38;;;;;;;3.55;1.10;;;;;;;13.26;100.00;100563.78;4973305;28;20061;-93
2023/08/08 04:24:04;;;;;;;1.70;0.70;;;;;;;13.34;100.00;100570.22;4972872;28;20035;-93
2023/08/08 04:26:29;;;;;;;4.32;0.90;;;;;;;13.36;100.00;100570.94;4973750;28;20062;-93
2023/08/08 04:28:55;;;;;;;1.60;0.65;;;;;;;13.31;100.00;100571.25;4973326;28;20077;-93
2023/08/08 04:31:23;;;;;;;1.77;1.10;;;;;;;13.40;100.00;100580.19;4972811;28;20066;-93
2023/08/08 04:33:48;;;;;;;4.25;1.08;;;;;;;13.34;100.00;100576.25;4971812;28;20045;-92
2023/08/08 04:36:14;;;;;;;1.77;0.90;;;;;;;13.29;100.00;100583.50;4972859;28;20031;-94
2023/08/08 04:38:39;;;;;;;2.92;1.15;;;;;;;13.31;100.00;100575.59;4972302;28;20034;-93
2023/08/08 04:41:04;;;;;;;1.60;1.00;;;;;;;13.28;100.00;100581.81;4973077;28;20062;-93
2023/08/08 04:43:30;;;;;;;3.35;1.40;;;;;;;13.32;100.00;100577.28;4973105;28;20144;-93
2023/08/08 04:45:55;;;;;;;2.17;1.30;;;;;;;13.35;100.00;100571.88;4973120;28;20038;-93
2023/08/08 04:48:21;;;;;;;2.70;1.10;;;;;;;13.33;100.00;100566.78;4973205;28;20145;-93
2023/08/08 04:50:47;;;;;;;2.45;1.08;;;;;;;13.35;100.00;100574.47;4972856;28;20397;-93
2023/08/08 04:53:13;;;;;;;3.65;1.17;;;;;;;13.28;100.00;100561.91;4972590;28;20035;-93
2023/08/08 04:55:39;;;;;;;1.13;0.82;;;;;;;13.32;100.00;100562.56;4972733;28;20035;-92
2023/08/08 04:58:04;;;;;;;4.05;1.33;;;;;;;13.30;100.00;100558.41;4972926;28;20035;-93
2023/08/08 05:00:30;;;;;;;2.65;1.20;;;;;;;13.20;100.00;100553.81;4972985;28;20023;-93
2023/08/08 05:02:55;;;;;;;3.70;1.17;;;;;;;13.18;100.00;100555.66;4972759;28;20023;-92
2023/08/08 05:05:20;;;;;;;3.47;1.33;;;;;;;13.15;100.00;100552.47;4972842;28;20026;-93
2023/08/08 05:07:46;;;;;;;1.52;1.20;;;;;;;13.27;100.00;100554.25;4988601;28;20457;-93
2023/08/08 05:10:11;;;;;;;5.68;1.50;;;;;;;13.34;100.00;100547.75;4990901;28;20041;-93
2023/08/08 05:12:36;;;;;;;4.90;2.10;;;;;;;13.34;100.00;100549.47;4992348;28;20122;-94
2023/08/08 05:15:02;;;;;;;2.58;1.13;;;;;;;13.25;100.00;100559.50;4992355;28;20078;-93
2023/08/08 05:17:31;;;;;;;4.88;1.30;;;;;;;13.27;100.00;100557.69;4992095;28;20106;-93
2023/08/08 05:19:56;;;;;;;6.32;1.92;;;;;;;13.27;100.00;100555.09;4992097;28;20030;-94
2023/08/08 05:22:22;;;;;;;5.40;1.85;;;;;;;13.30;100.00;100563.59;4974739;28;20038;-93
2023/08/08 05:24:47;;;;;;;3.38;1.70;;;;;;;13.35;100.00;100566.72;4972915;28;20027;-93
2023/08/08 05:27:12;;;;;;;5.32;2.33;;;;;;;13.35;100.00;100556.34;4972809;28;20098;-93
2023/08/08 05:29:39;;;;;;;3.75;1.50;;;;;;;13.35;100.00;100553.75;4972585;28;20097;-93
2023/08/08 05:32:06;;;;;;;7.65;1.85;;;;;;;13.23;100.00;100551.00;4972705;28;20698;-92
2023/08/08 05:34:32;;;;;;;5.43;1.67;;;;;;;13.33;100.00;100551.25;4972728;28;20088;-93
2023/08/08 05:36:57;;;;;;;5.57;1.88;;;;;;;13.33;100.00;100553.00;4978510;28;20027;-93
2023/08/08 05:39:23;;;;;;;4.90;1.83;;;;;;;13.34;100.00;100539.09;4982260;28;20113;-93
2023/08/08 05:41:48;;;;;;;4.22;1.60;;;;;;;13.37;100.00;100538.91;4992519;28;20062;-93
2023/08/08 05:44:14;;;;;;;6.78;2.00;;;;;;;13.29;100.00;100531.66;4992274;28;20042;-93
2023/08/08 05:46:39;;;;;;;4.60;1.80;;;;;;;13.34;100.00;100536.50;4992271;28;20173;-93
2023/08/08 05:49:04;;;;;;;6.18;2.47;;;;;;;13.34;100.00;100529.59;4992360;28;20030;-93
2023/08/08 05:51:30;;;;;;;4.80;1.83;;;;;;;13.39;100.00;100526.69;4990574;28;20485;-93
2023/08/08 05:53:55;;;;;;;5.40;1.95;;;;;;;13.33;100.00;100532.28;4985973;28;20026;-93
2023/08/08 05:56:20;;;;;;;2.63;1.48;;;;;;;13.34;100.00;100539.09;4976216;28;20117;-93
2023/08/08 05:58:46;;;;;;;2.95;1.40;;;;;;;13.24;100.00;100531.09;4976241;28;20031;-92
2023/08/08 06:01:12;;;;;;;5.10;2.13;;;;;;;13.33;100.00;100529.69;4974705;28;20093;-93
2023/08/08 06:03:37;;;;;;;2.25;1.45;;;;;;;13.37;100.00;100539.75;4975936;28;20039;-93
2023/08/08 06:06:03;;;;;;;3.70;1.40;;;;;;;13.43;100.00;100543.69;4976134;28;20110;-93
2023/08/08 06:08:29;;;;;;;3.60;1.80;;;;;;;13.45;100.00;100544.41;4975474;28;20035;-92
2023/08/08 06:10:54;;;;;;;4.47;1.88;;;;;;;13.35;100.00;100540.78;4975750;28;20393;-93
2023/08/08 06:13:19;;;;;;;4.80;1.70;;;;;;;13.33;100.00;100535.69;4975734;28;20029;-94
2023/08/08 06:15:45;;;;;;;5.10;1.80;;;;;;;13.36;100.00;100532.06;4975863;28;20077;-93
2023/08/08 06:18:10;;;;;;;3.50;1.90;;;;;;;13.40;100.00;100533.53;4975881;28;20018;-93
2023/08/08 06:20:35;;;;;;;6.28;1.70;;;;;;;13.41;100.00;100529.97;4975947;28;20027;-93
2023/08/08 06:23:01;;;;;;;3.35;1.60;;;;;;;13.52;100.00;100519.72;4975568;28;20033;-94
2023/08/08 06:25:27;;;;;;;8.55;1.60;;;;;;;13.59;100.00;100518.38;4992331;28;20467;-94
2023/08/08 06:27:53;;;;;;;3.65;1.73;;;;;;;13.59;100.00;100523.56;4993671;28;20022;-93
2023/08/08 06:30:19;;;;;;;7.22;1.70;;;;;;;13.69;100.00;100518.56;4995162;28;20480;-93
2023/08/08 06:32:44;;;;;;;5.78;1.48;;;;;;;13.76;100.00;100516.38;4995052;28;20026;-93
2023/08/08 06:35:09;;;;;;;1.30;1.20;;;;;;;13.67;100.00;100520.44;4995032;28;20027;-94
2023/08/08 06:37:35;;;;;;;3.65;1.40;;;;;;;13.65;100.00;100517.94;4993480;28;20023;-93
2023/08/08 06:40:01;;;;;;;3.67;1.48;;;;;;;13.68;100.00;100517.75;4985249;28;20113;-93
2023/08/08 06:42:26;;;;;;;4.82;2.00;;;;;;;13.76;100.00;100529.34;4974017;28;20082;-93
2023/08/08 06:44:52;;;;;;;4.68;1.70;;;;;;;13.86;100.00;100525.19;4974317;28;20031;-93
2023/08/08 06:47:17;;;;;;;4.35;1.40;;;;;;;13.88;100.00;100523.31;4975287;28;20492;-93
2023/08/08 06:49:42;;;;;;;3.92;1.40;;;;;;;13.93;100.00;100516.03;4975156;28;20077;-94
2023/08/08 06:52:08;;;;;;;1.48;1.38;;;;;;;13.99;100.00;100520.78;4975233;28;20026;-94
2023/08/08 06:54:33;;;;;;;3.10;1.40;;;;;;;14.02;100.00;100523.16;4974793;28;20027;-94
2023/08/08 06:56:59;;;;;;;3.30;1.58;;;;;;;14.04;100.00;100528.22;4975461;28;20037;-95
2023/08/08 06:59:26;;;;;;;1.33;1.20;;;;;;;14.10;100.00;100528.63;4975617;28;20049;-95
2023/08/08 07:01:51;;;;;;;2.60;1.50;;;;;;;14.00;100.00;100522.44;4973999;28;20089;-94
2023/08/08 07:04:18;;;;;;;4.85;1.52;;;;;;;14.08;100.00;100514.94;4976327;28;20106;-95
2023/08/08 07:06:44;;;;;;;3.60;1.48;;;;;;;14.19;100.00;100521.13;4976678;28;20027;-94
2023/08/08 07:09:10;;;;;;;3.38;1.50;;;;;;;14.19;100.00;100510.75;4976190;28;20030;-94
2023/08/08 07:11:36;;;;;;;3.55;1.30;;;;;;;14.25;100.00;100520.69;4977553;28;20512;-93
2023/08/08 07:14:02;;;;;;;4.88;1.65;;;;;;;14.32;100.00;100520.16;4977740;28;20049;-96
2023/08/08 07:16:27;;;;;;;1.73;1.20;;;;;;;14.40;100.00;100521.38;4984821;28;20120;-94
2023/08/08 07:18:53;;;;;;;5.07;1.33;;;;;;;14.44;100.00;100526.22;4984786;28;20039;-94
2023/08/08 07:21:18;;;;;;;3.38;1.50;;;;;;;14.40;100.00;100519.59;4985917;28;20030;-96
2023/08/08 07:23:44;;;;;;;4.20;1.30;;;;;;;14.41;100.00;100515.22;4980804;28;20027;-96
2023/08/08 07:26:10;;;;;;;4.68;1.42;;;;;;;14.60;100.00;100514.75;4974800;28;20082;-94
2023/08/08 07:28:35;;;;;;;3.03;1.38;;;;;;;14.54;100.00;100506.47;4977768;28;20029;-94
2023/08/08 07:31:02;;;;;;;2.08;1.23;;;;;;;14.67;100.00;100509.00;4981249;28;20015;-96
2023/08/08 07:33:27;;;;;;;2.65;1.38;;;;;;;14.79;100.00;100499.47;4996306;28;20022;-96
2023/08/08 07:35:52;;;;;;;4.90;2.20;;;;;;;14.96;100.00;100495.63;4989565;28;20038;-94
2023/08/08 07:38:18;;;;;;;2.50;1.02;;;;;;;15.01;100.00;100496.09;4986657;28;20109;-93
2023/08/08 07:40:43;;;;;;;3.03;1.00;;;;;;;15.14;100.00;100483.00;4994116;28;20026;-95
2023/08/08 07:43:09;;;;;;;4.82;1.27;;;;;;;15.36;100.00;100477.84;4992736;28;20026;-96
2023/08/08 07:45:34;;;;;;;4.30;1.85;;;;;;;15.53;100.00;100478.28;4992968;28;20053;-93
2023/08/08 07:48:01;;;;;;;1.58;1.08;;;;;;;15.54;100.00;100482.56;4994885;28;20469;-96
2023/08/08 07:50:26;;;;;;;3.40;1.20;;;;;;;15.56;100.00;100489.28;4993274;28;20023;-96
2023/08/08 07:52:51;;;;;;;3.10;0.98;;;;;;;15.48;100.00;100483.00;4977910;28;20082;-95
2023/08/08 07:55:17;;;;;;;3.53;1.33;;;;;;;15.37;100.00;100482.06;4976537;28;20074;-94
2023/08/08 07:57:42;;;;;;;2.08;0.98;;;;;;;15.52;100.00;100480.06;4981133;28;20098;-94
2023/08/08 08:00:12;;;;;;;6.45;1.40;;;;;;;15.60;100.00;100482.06;4978810;28;20027;-95
2023/08/08 08:02:38;;;;;;;4.75;1.08;;;;;;;15.46;100.00;100487.50;4974342;28;20027;-96
2023/08/08 08:05:07;;;;;;;5.25;1.27;;;;;;;15.17;100.00;100478.41;4974361;28;20117;-95
2023/08/08 08:07:34;;;;;;;2.60;1.30;;;;;;;15.37;100.00;100479.47;4974550;28;20015;-94
2023/08/08 08:10:01;;;;;;;2.47;1.17;;;;;;;15.30;100.00;100477.47;4981296;28;20023;-94
2023/08/08 08:12:26;;;;;;;1.13;1.02;;;;;;;15.34;100.00;100476.28;4982146;28;20031;-95
2023/08/08 08:14:52;;;;;;;1.85;1.08;;;;;;;15.26;100.00;100471.66;4974185;28;20046;-95
2023/08/08 08:17:17;;;;;;;5.85;1.30;;;;;;;15.24;100.00;100472.72;4981902;28;20108;-96
2023/08/08 08:19:42;;;;;;;3.08;1.85;;;;;;;15.16;100.00;100462.91;4977625;28;20033;-94
2023/08/08 08:22:08;;;;;;;5.00;1.55;;;;;;;15.22;100.00;100459.84;4977890;28;20134;-96
2023/08/08 08:24:33;;;;;;;4.47;1.70;;;;;;;15.16;100.00;100465.50;4979540;28;20027;-95
2023/08/08 08:26:59;;;;;;;2.42;1.48;;;;;;;15.28;100.00;100464.56;4980424;28;20023;-95
2023/08/08 08:29:24;;;;;;;1.70;0.85;;;;;;;15.23;100.00;100461.50;4984546;28;20035;-96
2023/08/08 08:31:49;;;;;;;2.15;1.40;;;;;;;15.29;100.00;100455.84;4980519;28;20038;-96
2023/08/08 08:34:15;;;;;;;2.05;1.20;;;;;;;15.31;100.00;100459.13;4985817;28;20030;-96
2023/08/08 08:36:41;;;;;;;1.65;0.95;;;;;;;15.47;100.00;100457.97;4984220;28;20026;-96
2023/08/08 08:39:06;;;;;;;4.93;1.20;;;;;;;15.29;100.00;100452.38;4990019;28;20033;-96
2023/08/08 08:41:35;;;;;;;3.42;1.80;;;;;;;15.49;100.00;100445.66;4991015;28;20062;-95
2023/08/08 08:44:01;;;;;;;3.55;1.17;;;;;;;15.39;100.00;100451.56;4986555;28;20034;-94
2023/08/08 08:46:28;;;;;;;2.72;1.05;;;;;;;15.41;100.00;100439.28;4974742;28;20033;-95
2023/08/08 08:48:56;;;;;;;6.57;1.30;;;;;;;15.34;100.00;100447.69;4989992;28;20500;-93
2023/08/08 08:51:21;;;;;;;3.65;1.27;;;;;;;15.22;100.00;100452.06;4994124;28;20038;-95
2023/08/08 08:53:47;;;;;;;3.70;0.98;;;;;;;15.30;100.00;100454.88;4988100;28;20019;-95
2023/08/08 08:56:14;;;;;;;3.00;1.33;;;;;;;15.30;100.00;100454.06;4985520;28;20045;-96
2023/08/08 08:58:40;;;;;;;1.85;0.85;;;;;;;15.35;100.00;100463.16;4990138;28;20019;-93
2023/08/08 09:01:07;;;;;;;2.08;0.93;;;;;;;15.26;100.00;100461.25;4978336;28;20034;-93
2023/08/08 09:03:34;;;;;;;1.13;0.85;;;;;;;15.29;100.00;100461.03;4978030;28;20089;-94
2023/08/08 09:06:00;;;;;;;2.15;0.90;;;;;;;15.32;100.00;100459.97;4988919;28;20305;-95
2023/08/08 09:08:26;;;;;;;2.67;0.90;;;;;;;15.32;100.00;100460.78;4984219;28;20386;-93
2023/08/08 09:13:28;;;;;;;1.63;0.90;;;;;;;15.19;100.00;100449.66;5084524;23;20078;-96
2023/08/08 09:15:55;;;;;;;1.95;1.08;;;;;;;15.23;100.00;100451.09;4991313;28;20097;-96
2023/08/08 09:18:23;;;;;;;1.77;1.10;;;;;;;15.18;100.00;100445.44;4986744;28;20027;-96
2023/08/08 09:20:50;;;;;;;1.77;0.80;;;;;;;15.23;100.00;100438.09;4988383;28;20057;-96
2023/08/08 09:23:19;;;;;;;1.17;0.80;;;;;;;15.19;100.00;100444.47;4977318;28;20027;-95
2023/08/08 09:25:44;;;;;;;1.45;1.05;;;;;;;15.22;100.00;100439.06;4978911;28;20073;-95
2023/08/08 09:28:10;;;;;;;1.92;1.10;;;;;;;15.31;100.00;100438.31;4989348;28;20030;-95
2023/08/08 09:30:35;;;;;;;1.70;0.90;;;;;;;15.38;100.00;100430.88;4989905;28;20019;-96
2023/08/08 09:33:01;;;;;;;1.98;1.17;;;;;;;15.35;100.00;100437.16;5003856;28;20037;-96
2023/08/08 09:35:30;;;;;;;4.32;1.02;;;;;;;15.32;100.00;100427.00;5049143;23;20014;-96
2023/08/08 09:43:08;;;;;;;4.80;2.28;;;;;;;15.37;100.00;100411.84;5875656;23;20154;-96
2023/08/08 09:45:38;;;;;;;3.35;1.35;;;;;;;15.38;100.00;100416.09;4990224;28;20351;-96
2023/08/08 09:48:06;;;;;;;7.80;2.30;;;;;;;15.23;100.00;100416.47;4979719;28;20018;-96
2023/08/08 09:50:33;;;;;;;3.22;1.70;;;;;;;15.32;100.00;100410.56;4987423;28;20033;-96
2023/08/08 09:52:59;;;;;;;8.65;1.70;;;;;;;15.36;100.00;100412.81;4991678;28;20025;-95
2023/08/08 09:55:25;;;;;;;2.50;1.65;;;;;;;15.32;100.00;100408.78;4994746;28;20109;-96
2023/08/08 09:57:52;;;;;;;5.40;1.67;;;;;;;15.27;100.00;100413.53;4987908;28;20019;-95
2023/08/08 10:00:20;;;;;;;2.70;1.60;;;;;;;15.27;100.00;100407.50;4985681;28;20023;-95
2023/08/08 10:02:46;;;;;;;6.45;1.98;;;;;;;15.35;100.00;100407.72;4978782;28;20110;-95
2023/08/08 10:05:14;;;;;;;4.00;1.50;;;;;;;15.38;100.00;100408.28;4985467;28;20034;-96
2023/08/08 10:07:41;;;;;;;3.05;1.40;;;;;;;15.47;100.00;100411.13;4980707;28;20058;-96
2023/08/08 10:10:09;;;;;;;1.77;1.02;;;;;;;15.44;100.00;100406.19;4976942;28;20500;-94
2023/08/08 10:12:36;;;;;;;3.97;1.67;;;;;;;15.29;100.00;100400.38;4984323;28;20019;-95
2023/08/08 10:15:02;;;;;;;2.25;1.35;;;;;;;15.33;100.00;100405.22;4995288;28;20055;-96
2023/08/08 10:17:35;;;;;;;4.80;2.20;;;;;;;15.30;100.00;100404.66;4988579;28;20122;-94
2023/08/08 10:20:09;;;;;;;3.42;1.63;;;;;;;15.33;100.00;100415.63;4979612;28;20034;-95
2023/08/08 10:22:35;;;;;;;3.05;1.60;;;;;;;15.37;100.00;100411.84;4978874;28;20429;-95
2023/08/08 10:25:03;;;;;;;2.47;1.15;;;;;;;15.41;100.00;100408.06;4992572;28;20029;-95
2023/08/08 10:27:32;;;;;;;5.32;1.92;;;;;;;15.39;100.00;100399.56;4978221;28;20035;-94
2023/08/08 10:30:16;;;;;;;5.00;1.85;;;;;;;15.42;100.00;100393.28;4978119;28;20062;-94
2023/08/08 10:32:48;;;;;;;3.42;1.75;;;;;;;15.44;100.00;100390.59;4989704;28;20421;-94
2023/08/08 10:35:14;;;;;;;3.03;1.45;;;;;;;15.55;100.00;100385.34;4977387;28;20033;-94
2023/08/08 10:37:40;;;;;;;3.88;1.90;;;;;;;15.73;100.00;100380.50;4988615;28;20026;-95
2023/08/08 10:40:07;;;;;;;9.13;1.65;;;;;;;15.78;100.00;100379.19;4993386;28;20080;-94
2023/08/08 10:42:40;;;;;;;5.97;2.28;;;;;;;15.71;100.00;100374.59;4990317;28;20030;-95
2023/08/08 10:45:09;;;;;;;4.88;2.72;;;;;;;15.69;100.00;100373.84;4989596;28;20102;-95
2023/08/08 10:47:35;;;;;;;3.70;1.40;;;;;;;15.96;100.00;100387.25;4973841;28;20034;-96
2023/08/08 10:50:06;;;;;;;1.83;1.25;;;;;;;16.11;100.00;100394.78;4983370;28;20030;-95
2023/08/08 10:52:35;;;;;;;5.47;1.70;;;;;;;16.22;100.00;100392.97;4974871;28;20030;-95
2023/08/08 10:55:01;;;;;;;4.15;1.73;;;;;;;16.25;100.00;100403.13;4978249;28;20273;-94
2023/08/08 10:57:27;;;;;;;6.13;1.58;;;;;;;16.27;100.00;100401.22;4979529;28;20121;-94
2023/08/08 10:59:54;;;;;;;5.03;1.83;;;;;;;16.33;100.00;100399.06;4974424;28;20118;-94
2023/08/08 11:02:20;;;;;;;4.03;2.00;;;;;;;16.36;100.00;100398.81;4987677;28;20130;-95
2023/08/08 11:04:46;;;;;;;4.55;1.80;;;;;;;16.26;100.00;100391.78;4985107;28;20081;-94
2023/08/08 11:07:11;;;;;;;8.93;2.08;;;;;;;16.50;100.00;100388.06;4974078;28;20031;-92
2023/08/08 11:09:37;;;;;;;2.83;1.42;;;;;;;16.82;100.00;100379.38;4980505;28;20481;-93
2023/08/08 11:12:03;;;;;;;4.07;1.80;;;;;;;16.91;100.00;100381.19;4981380;28;20107;-95
2023/08/08 11:14:29;;;;;;;4.70;1.85;;;;;;;16.99;100.00;100375.31;4974036;28;20026;-96
2023/08/08 11:16:54;;;;;;;2.95;1.80;;;;;;;16.95;100.00;100380.00;4981238;28;20038;-95
2023/08/08 11:19:20;;;;;;;6.13;1.80;;;;;;;17.06;100.00;100377.28;4989967;28;20038;-94